sensor_id;sensor_type;location;lat;lon;timestamp;P1;durP1;ratioP1;P2;durP2;ratioP2
4047;SDS011;2038;51.728;6.674;2022-12-10T00:01:28;69.27;;;33.60;;
4047;SDS011;2038;51.728;6.674;2022-12-10T00:03:57;72.80;;;35.30;;
4047;SDS011;2038;51.728;6.674;2022-12-10T00:06:26;88.03;;;37.90;;
4047;SDS011;2038;51.728;6.674;2022-12-10T00:08:58;82.27;;;39.67;;
4047;SDS011;2038;51.728;6.674;2022-12-10T00:11:25;74.17;;;35.60;;
4047;SDS011;2038;51.728;6.674;2022-12-10T00:13:53;79.23;;;36.50;;
4047;SDS011;2038;51.728;6.674;2022-12-10T00:16:20;85.80;;;38.00;;
4047;SDS011;2038;51.728;6.674;2022-12-10T00:18:49;79.37;;;37.13;;
4047;SDS011;2038;51.728;6.674;2022-12-10T00:21:18;65.30;;;34.87;;
4047;SDS011;2038;51.728;6.674;2022-12-10T00:23:48;75.97;;;36.07;;
4047;SDS011;2038;51.728;6.674;2022-12-10T00:26:16;69.23;;;36.70;;
4047;SDS011;2038;51.728;6.674;2022-12-10T00:28:48;80.83;;;35.07;;
4047;SDS011;2038;51.728;6.674;2022-12-10T00:31:21;78.93;;;34.77;;
4047;SDS011;2038;51.728;6.674;2022-12-10T00:33:53;76.33;;;35.23;;
4047;SDS011;2038;51.728;6.674;2022-12-10T00:36:35;78.10;;;36.10;;
4047;SDS011;2038;51.728;6.674;2022-12-10T00:39:07;75.97;;;34.67;;
4047;SDS011;2038;51.728;6.674;2022-12-10T00:41:36;75.50;;;32.87;;
4047;SDS011;2038;51.728;6.674;2022-12-10T00:44:02;83.20;;;35.93;;
4047;SDS011;2038;51.728;6.674;2022-12-10T00:46:29;75.00;;;34.47;;
4047;SDS011;2038;51.728;6.674;2022-12-10T00:48:57;75.07;;;37.47;;
4047;SDS011;2038;51.728;6.674;2022-12-10T00:51:24;74.77;;;35.57;;
4047;SDS011;2038;51.728;6.674;2022-12-10T00:53:53;71.60;;;35.57;;
4047;SDS011;2038;51.728;6.674;2022-12-10T00:56:23;82.63;;;35.53;;
4047;SDS011;2038;51.728;6.674;2022-12-10T00:58:52;67.27;;;33.67;;
4047;SDS011;2038;51.728;6.674;2022-12-10T01:01:20;81.03;;;37.77;;
4047;SDS011;2038;51.728;6.674;2022-12-10T01:03:54;85.07;;;36.37;;
4047;SDS011;2038;51.728;6.674;2022-12-10T01:06:24;83.10;;;33.60;;
4047;SDS011;2038;51.728;6.674;2022-12-10T01:08:55;74.73;;;33.80;;
4047;SDS011;2038;51.728;6.674;2022-12-10T01:11:26;79.57;;;36.37;;
4047;SDS011;2038;51.728;6.674;2022-12-10T01:13:59;65.07;;;32.20;;
4047;SDS011;2038;51.728;6.674;2022-12-10T01:16:26;79.27;;;35.60;;
4047;SDS011;2038;51.728;6.674;2022-12-10T01:18:56;83.50;;;35.17;;
4047;SDS011;2038;51.728;6.674;2022-12-10T01:21:23;75.73;;;34.93;;
4047;SDS011;2038;51.728;6.674;2022-12-10T01:23:53;68.17;;;32.63;;
4047;SDS011;2038;51.728;6.674;2022-12-10T01:26:21;64.97;;;31.47;;
4047;SDS011;2038;51.728;6.674;2022-12-10T01:28:52;63.77;;;31.30;;
4047;SDS011;2038;51.728;6.674;2022-12-10T01:31:21;68.83;;;36.23;;
4047;SDS011;2038;51.728;6.674;2022-12-10T01:33:58;68.37;;;32.17;;
4047;SDS011;2038;51.728;6.674;2022-12-10T01:36:27;72.80;;;35.63;;
4047;SDS011;2038;51.728;6.674;2022-12-10T01:39:07;77.77;;;34.83;;
4047;SDS011;2038;51.728;6.674;2022-12-10T01:41:38;72.93;;;35.57;;
4047;SDS011;2038;51.728;6.674;2022-12-10T01:46:40;74.73;;;35.50;;
4047;SDS011;2038;51.728;6.674;2022-12-10T01:49:15;83.07;;;37.17;;
4047;SDS011;2038;51.728;6.674;2022-12-10T01:51:45;66.57;;;34.17;;
4047;SDS011;2038;51.728;6.674;2022-12-10T01:54:16;61.43;;;31.00;;
4047;SDS011;2038;51.728;6.674;2022-12-10T01:56:56;75.17;;;34.10;;
4047;SDS011;2038;51.728;6.674;2022-12-10T01:59:32;69.10;;;34.17;;
4047;SDS011;2038;51.728;6.674;2022-12-10T02:08:05;77.10;;;34.40;;
4047;SDS011;2038;51.728;6.674;2022-12-10T02:13:56;71.97;;;35.80;;
4047;SDS011;2038;51.728;6.674;2022-12-10T02:16:38;70.37;;;31.00;;
4047;SDS011;2038;51.728;6.674;2022-12-10T02:21:47;60.07;;;32.07;;
4047;SDS011;2038;51.728;6.674;2022-12-10T02:24:18;62.43;;;30.90;;
4047;SDS011;2038;51.728;6.674;2022-12-10T02:29:49;57.17;;;30.67;;
4047;SDS011;2038;51.728;6.674;2022-12-10T02:32:20;62.17;;;31.17;;
4047;SDS011;2038;51.728;6.674;2022-12-10T02:34:55;71.80;;;33.43;;
4047;SDS011;2038;51.728;6.674;2022-12-10T02:37:30;69.13;;;32.83;;
4047;SDS011;2038;51.728;6.674;2022-12-10T02:40:06;60.63;;;31.60;;
4047;SDS011;2038;51.728;6.674;2022-12-10T02:42:42;74.37;;;33.43;;
4047;SDS011;2038;51.728;6.674;2022-12-10T02:45:13;79.37;;;33.97;;
4047;SDS011;2038;51.728;6.674;2022-12-10T02:47:40;69.50;;;31.97;;
4047;SDS011;2038;51.728;6.674;2022-12-10T02:50:07;69.33;;;34.20;;
4047;SDS011;2038;51.728;6.674;2022-12-10T02:52:39;64.43;;;32.63;;
4047;SDS011;2038;51.728;6.674;2022-12-10T02:55:05;68.87;;;31.87;;
4047;SDS011;2038;51.728;6.674;2022-12-10T02:57:37;75.00;;;32.33;;
4047;SDS011;2038;51.728;6.674;2022-12-10T03:00:32;70.23;;;32.40;;
4047;SDS011;2038;51.728;6.674;2022-12-10T03:06:32;78.23;;;33.63;;
4047;SDS011;2038;51.728;6.674;2022-12-10T03:09:20;73.83;;;34.73;;
4047;SDS011;2038;51.728;6.674;2022-12-10T03:11:58;73.47;;;32.13;;
4047;SDS011;2038;51.728;6.674;2022-12-10T03:14:36;64.30;;;30.70;;
4047;SDS011;2038;51.728;6.674;2022-12-10T03:17:03;64.60;;;32.07;;
4047;SDS011;2038;51.728;6.674;2022-12-10T03:19:42;61.17;;;30.77;;
4047;SDS011;2038;51.728;6.674;2022-12-10T03:22:14;71.23;;;33.20;;
4047;SDS011;2038;51.728;6.674;2022-12-10T03:24:45;69.07;;;31.57;;
4047;SDS011;2038;51.728;6.674;2022-12-10T03:27:13;68.77;;;32.00;;
4047;SDS011;2038;51.728;6.674;2022-12-10T03:29:47;65.10;;;32.60;;
4047;SDS011;2038;51.728;6.674;2022-12-10T03:32:17;67.40;;;31.53;;
4047;SDS011;2038;51.728;6.674;2022-12-10T03:34:47;62.33;;;33.00;;
4047;SDS011;2038;51.728;6.674;2022-12-10T03:37:18;58.87;;;29.90;;
4047;SDS011;2038;51.728;6.674;2022-12-10T03:39:47;59.53;;;30.00;;
4047;SDS011;2038;51.728;6.674;2022-12-10T03:42:13;51.07;;;27.03;;
4047;SDS011;2038;51.728;6.674;2022-12-10T03:44:40;54.57;;;29.47;;
4047;SDS011;2038;51.728;6.674;2022-12-10T03:47:07;45.73;;;25.83;;
4047;SDS011;2038;51.728;6.674;2022-12-10T03:49:39;39.97;;;22.77;;
4047;SDS011;2038;51.728;6.674;2022-12-10T03:52:07;41.60;;;22.00;;
4047;SDS011;2038;51.728;6.674;2022-12-10T03:54:33;38.60;;;23.70;;
4047;SDS011;2038;51.728;6.674;2022-12-10T03:57:00;35.30;;;21.80;;
4047;SDS011;2038;51.728;6.674;2022-12-10T03:59:26;46.70;;;25.93;;
4047;SDS011;2038;51.728;6.674;2022-12-10T04:01:53;55.70;;;27.17;;
4047;SDS011;2038;51.728;6.674;2022-12-10T04:04:19;60.93;;;28.73;;
4047;SDS011;2038;51.728;6.674;2022-12-10T04:06:45;51.37;;;27.90;;
4047;SDS011;2038;51.728;6.674;2022-12-10T04:09:12;56.77;;;26.87;;
4047;SDS011;2038;51.728;6.674;2022-12-10T04:11:40;59.27;;;27.53;;
4047;SDS011;2038;51.728;6.674;2022-12-10T04:14:11;48.97;;;26.10;;
4047;SDS011;2038;51.728;6.674;2022-12-10T04:16:56;41.73;;;24.50;;
4047;SDS011;2038;51.728;6.674;2022-12-10T04:19:23;54.27;;;27.57;;
4047;SDS011;2038;51.728;6.674;2022-12-10T04:21:50;54.00;;;27.70;;
4047;SDS011;2038;51.728;6.674;2022-12-10T04:24:35;47.27;;;27.47;;
4047;SDS011;2038;51.728;6.674;2022-12-10T04:27:21;52.17;;;25.90;;
4047;SDS011;2038;51.728;6.674;2022-12-10T04:29:52;53.17;;;32.13;;
4047;SDS011;2038;51.728;6.674;2022-12-10T04:32:21;53.53;;;27.43;;
4047;SDS011;2038;51.728;6.674;2022-12-10T04:34:50;50.03;;;27.90;;
4047;SDS011;2038;51.728;6.674;2022-12-10T04:37:16;59.23;;;26.70;;
4047;SDS011;2038;51.728;6.674;2022-12-10T04:39:43;53.63;;;28.30;;
4047;SDS011;2038;51.728;6.674;2022-12-10T04:42:10;56.10;;;29.60;;
4047;SDS011;2038;51.728;6.674;2022-12-10T04:44:37;54.13;;;30.20;;
4047;SDS011;2038;51.728;6.674;2022-12-10T04:47:04;55.57;;;28.77;;
4047;SDS011;2038;51.728;6.674;2022-12-10T04:49:33;58.33;;;29.17;;
4047;SDS011;2038;51.728;6.674;2022-12-10T04:51:59;64.63;;;31.80;;
4047;SDS011;2038;51.728;6.674;2022-12-10T04:54:27;56.27;;;28.03;;
4047;SDS011;2038;51.728;6.674;2022-12-10T04:56:53;65.43;;;27.93;;
4047;SDS011;2038;51.728;6.674;2022-12-10T04:59:20;61.93;;;29.90;;
4047;SDS011;2038;51.728;6.674;2022-12-10T05:01:46;74.50;;;33.80;;
4047;SDS011;2038;51.728;6.674;2022-12-10T05:04:14;76.67;;;33.07;;
4047;SDS011;2038;51.728;6.674;2022-12-10T05:06:43;64.97;;;32.10;;
4047;SDS011;2038;51.728;6.674;2022-12-10T05:09:10;62.30;;;29.73;;
4047;SDS011;2038;51.728;6.674;2022-12-10T05:11:37;57.83;;;28.70;;
4047;SDS011;2038;51.728;6.674;2022-12-10T05:14:05;76.57;;;30.43;;
4047;SDS011;2038;51.728;6.674;2022-12-10T05:16:32;56.47;;;30.20;;
4047;SDS011;2038;51.728;6.674;2022-12-10T05:18:59;60.90;;;33.33;;
4047;SDS011;2038;51.728;6.674;2022-12-10T05:21:26;58.23;;;32.63;;
4047;SDS011;2038;51.728;6.674;2022-12-10T05:24:14;63.57;;;28.17;;
4047;SDS011;2038;51.728;6.674;2022-12-10T05:26:43;58.57;;;30.40;;
4047;SDS011;2038;51.728;6.674;2022-12-10T05:29:09;60.87;;;31.70;;
4047;SDS011;2038;51.728;6.674;2022-12-10T05:31:37;62.57;;;29.13;;
4047;SDS011;2038;51.728;6.674;2022-12-10T05:34:03;64.13;;;29.33;;
4047;SDS011;2038;51.728;6.674;2022-12-10T05:36:30;55.57;;;30.57;;
4047;SDS011;2038;51.728;6.674;2022-12-10T05:38:57;56.60;;;31.37;;
4047;SDS011;2038;51.728;6.674;2022-12-10T05:41:24;77.73;;;31.27;;
4047;SDS011;2038;51.728;6.674;2022-12-10T05:43:54;60.40;;;30.90;;
4047;SDS011;2038;51.728;6.674;2022-12-10T05:46:23;70.60;;;31.00;;
4047;SDS011;2038;51.728;6.674;2022-12-10T05:48:53;57.57;;;29.50;;
4047;SDS011;2038;51.728;6.674;2022-12-10T05:51:21;64.07;;;29.87;;
4047;SDS011;2038;51.728;6.674;2022-12-10T05:53:53;63.70;;;31.57;;
4047;SDS011;2038;51.728;6.674;2022-12-10T05:56:22;62.97;;;26.97;;
4047;SDS011;2038;51.728;6.674;2022-12-10T05:58:52;62.60;;;30.20;;
4047;SDS011;2038;51.728;6.674;2022-12-10T06:01:27;62.90;;;29.57;;
4047;SDS011;2038;51.728;6.674;2022-12-10T06:03:59;59.33;;;27.07;;
4047;SDS011;2038;51.728;6.674;2022-12-10T06:06:28;67.50;;;31.13;;
4047;SDS011;2038;51.728;6.674;2022-12-10T06:09:02;54.60;;;28.53;;
4047;SDS011;2038;51.728;6.674;2022-12-10T06:11:30;63.03;;;31.33;;
4047;SDS011;2038;51.728;6.674;2022-12-10T06:13:57;62.50;;;31.90;;
4047;SDS011;2038;51.728;6.674;2022-12-10T06:16:24;78.97;;;34.30;;
4047;SDS011;2038;51.728;6.674;2022-12-10T06:18:52;76.50;;;33.33;;
4047;SDS011;2038;51.728;6.674;2022-12-10T06:21:20;68.43;;;31.50;;
4047;SDS011;2038;51.728;6.674;2022-12-10T06:23:49;86.27;;;42.33;;
4047;SDS011;2038;51.728;6.674;2022-12-10T06:26:17;58.00;;;33.00;;
4047;SDS011;2038;51.728;6.674;2022-12-10T06:28:48;70.80;;;31.80;;
4047;SDS011;2038;51.728;6.674;2022-12-10T06:31:16;82.00;;;31.80;;
4047;SDS011;2038;51.728;6.674;2022-12-10T06:33:43;72.10;;;33.60;;
4047;SDS011;2038;51.728;6.674;2022-12-10T06:36:11;67.93;;;32.23;;
4047;SDS011;2038;51.728;6.674;2022-12-10T06:38:40;61.43;;;31.57;;
4047;SDS011;2038;51.728;6.674;2022-12-10T06:41:07;83.43;;;33.80;;
4047;SDS011;2038;51.728;6.674;2022-12-10T06:43:36;71.67;;;34.03;;
4047;SDS011;2038;51.728;6.674;2022-12-10T06:46:04;70.50;;;32.20;;
4047;SDS011;2038;51.728;6.674;2022-12-10T06:48:36;73.67;;;34.37;;
4047;SDS011;2038;51.728;6.674;2022-12-10T06:51:03;76.73;;;33.60;;
4047;SDS011;2038;51.728;6.674;2022-12-10T06:53:30;53.90;;;29.23;;
4047;SDS011;2038;51.728;6.674;2022-12-10T06:55:59;69.03;;;32.43;;
4047;SDS011;2038;51.728;6.674;2022-12-10T06:58:28;57.67;;;30.50;;
4047;SDS011;2038;51.728;6.674;2022-12-10T07:01:06;65.87;;;32.87;;
4047;SDS011;2038;51.728;6.674;2022-12-10T07:03:41;63.57;;;32.60;;
4047;SDS011;2038;51.728;6.674;2022-12-10T07:06:08;61.27;;;30.47;;
4047;SDS011;2038;51.728;6.674;2022-12-10T07:08:36;65.37;;;32.93;;
4047;SDS011;2038;51.728;6.674;2022-12-10T07:11:04;66.80;;;30.77;;
4047;SDS011;2038;51.728;6.674;2022-12-10T07:13:33;68.83;;;40.37;;
4047;SDS011;2038;51.728;6.674;2022-12-10T07:16:01;80.10;;;39.10;;
4047;SDS011;2038;51.728;6.674;2022-12-10T07:18:28;78.53;;;35.30;;
4047;SDS011;2038;51.728;6.674;2022-12-10T07:20:54;75.00;;;34.60;;
4047;SDS011;2038;51.728;6.674;2022-12-10T07:23:20;70.90;;;34.63;;
4047;SDS011;2038;51.728;6.674;2022-12-10T07:25:46;84.60;;;34.70;;
4047;SDS011;2038;51.728;6.674;2022-12-10T07:28:13;103.90;;;38.83;;
4047;SDS011;2038;51.728;6.674;2022-12-10T07:30:39;97.63;;;40.67;;
4047;SDS011;2038;51.728;6.674;2022-12-10T07:33:06;112.70;;;44.77;;
4047;SDS011;2038;51.728;6.674;2022-12-10T07:35:32;104.07;;;42.33;;
4047;SDS011;2038;51.728;6.674;2022-12-10T07:37:58;103.77;;;41.00;;
4047;SDS011;2038;51.728;6.674;2022-12-10T07:40:24;105.17;;;41.13;;
4047;SDS011;2038;51.728;6.674;2022-12-10T07:42:50;113.60;;;44.47;;
4047;SDS011;2038;51.728;6.674;2022-12-10T07:45:17;114.10;;;38.80;;
4047;SDS011;2038;51.728;6.674;2022-12-10T07:47:43;112.83;;;45.57;;
4047;SDS011;2038;51.728;6.674;2022-12-10T07:50:09;128.63;;;49.93;;
4047;SDS011;2038;51.728;6.674;2022-12-10T07:52:36;126.10;;;44.53;;
4047;SDS011;2038;51.728;6.674;2022-12-10T07:55:02;140.13;;;51.77;;
4047;SDS011;2038;51.728;6.674;2022-12-10T07:57:28;119.93;;;47.50;;
4047;SDS011;2038;51.728;6.674;2022-12-10T07:59:55;116.93;;;46.10;;
4047;SDS011;2038;51.728;6.674;2022-12-10T08:02:21;114.20;;;43.40;;
4047;SDS011;2038;51.728;6.674;2022-12-10T08:04:47;119.10;;;43.57;;
4047;SDS011;2038;51.728;6.674;2022-12-10T08:07:13;123.93;;;44.60;;
4047;SDS011;2038;51.728;6.674;2022-12-10T08:09:40;113.03;;;42.30;;
4047;SDS011;2038;51.728;6.674;2022-12-10T08:12:06;118.53;;;46.63;;
4047;SDS011;2038;51.728;6.674;2022-12-10T08:14:32;122.40;;;46.20;;
4047;SDS011;2038;51.728;6.674;2022-12-10T08:16:58;134.37;;;48.40;;
4047;SDS011;2038;51.728;6.674;2022-12-10T08:19:24;126.07;;;45.83;;
4047;SDS011;2038;51.728;6.674;2022-12-10T08:21:51;124.07;;;44.90;;
4047;SDS011;2038;51.728;6.674;2022-12-10T08:24:17;117.73;;;43.30;;
4047;SDS011;2038;51.728;6.674;2022-12-10T08:26:43;114.60;;;46.70;;
4047;SDS011;2038;51.728;6.674;2022-12-10T08:29:09;115.00;;;47.10;;
4047;SDS011;2038;51.728;6.674;2022-12-10T08:31:36;125.33;;;45.60;;
4047;SDS011;2038;51.728;6.674;2022-12-10T08:34:02;127.10;;;45.90;;
4047;SDS011;2038;51.728;6.674;2022-12-10T08:36:29;123.33;;;47.00;;
4047;SDS011;2038;51.728;6.674;2022-12-10T08:38:55;127.83;;;45.60;;
4047;SDS011;2038;51.728;6.674;2022-12-10T08:41:22;120.90;;;44.90;;
4047;SDS011;2038;51.728;6.674;2022-12-10T08:43:48;121.70;;;45.57;;
4047;SDS011;2038;51.728;6.674;2022-12-10T08:46:18;140.40;;;46.53;;
4047;SDS011;2038;51.728;6.674;2022-12-10T08:48:44;130.03;;;45.30;;
4047;SDS011;2038;51.728;6.674;2022-12-10T08:51:11;110.67;;;42.33;;
4047;SDS011;2038;51.728;6.674;2022-12-10T08:53:41;121.47;;;45.23;;
4047;SDS011;2038;51.728;6.674;2022-12-10T08:56:08;121.10;;;47.00;;
4047;SDS011;2038;51.728;6.674;2022-12-10T08:58:35;144.67;;;47.70;;
4047;SDS011;2038;51.728;6.674;2022-12-10T09:01:06;118.80;;;45.60;;
4047;SDS011;2038;51.728;6.674;2022-12-10T09:03:35;120.07;;;45.70;;
4047;SDS011;2038;51.728;6.674;2022-12-10T09:06:06;125.47;;;45.27;;
4047;SDS011;2038;51.728;6.674;2022-12-10T09:08:36;132.60;;;48.87;;
4047;SDS011;2038;51.728;6.674;2022-12-10T09:13:38;132.17;;;46.00;;
4047;SDS011;2038;51.728;6.674;2022-12-10T09:16:05;147.00;;;46.03;;
4047;SDS011;2038;51.728;6.674;2022-12-10T09:18:31;124.73;;;47.43;;
4047;SDS011;2038;51.728;6.674;2022-12-10T09:20:57;139.33;;;47.97;;
4047;SDS011;2038;51.728;6.674;2022-12-10T09:23:24;119.33;;;48.10;;
4047;SDS011;2038;51.728;6.674;2022-12-10T09:25:50;120.93;;;47.00;;
4047;SDS011;2038;51.728;6.674;2022-12-10T09:28:17;131.60;;;46.27;;
4047;SDS011;2038;51.728;6.674;2022-12-10T09:30:43;135.20;;;51.30;;
4047;SDS011;2038;51.728;6.674;2022-12-10T09:33:09;148.57;;;52.60;;
4047;SDS011;2038;51.728;6.674;2022-12-10T09:35:39;144.27;;;60.47;;
4047;SDS011;2038;51.728;6.674;2022-12-10T09:38:06;121.77;;;49.17;;
4047;SDS011;2038;51.728;6.674;2022-12-10T09:40:39;114.03;;;49.67;;
4047;SDS011;2038;51.728;6.674;2022-12-10T09:43:32;127.67;;;48.23;;
4047;SDS011;2038;51.728;6.674;2022-12-10T09:46:18;146.03;;;49.27;;
4047;SDS011;2038;51.728;6.674;2022-12-10T09:48:59;120.70;;;47.47;;
4047;SDS011;2038;51.728;6.674;2022-12-10T09:51:31;125.70;;;44.37;;
4047;SDS011;2038;51.728;6.674;2022-12-10T09:54:18;143.07;;;52.40;;
4047;SDS011;2038;51.728;6.674;2022-12-10T09:56:53;157.37;;;49.20;;
4047;SDS011;2038;51.728;6.674;2022-12-10T09:59:24;179.87;;;58.90;;
4047;SDS011;2038;51.728;6.674;2022-12-10T10:02:24;165.43;;;56.33;;
4047;SDS011;2038;51.728;6.674;2022-12-10T10:05:01;135.37;;;52.30;;
4047;SDS011;2038;51.728;6.674;2022-12-10T10:07:33;182.90;;;67.33;;
4047;SDS011;2038;51.728;6.674;2022-12-10T10:10:32;164.37;;;59.47;;
4047;SDS011;2038;51.728;6.674;2022-12-10T10:18:59;150.70;;;51.93;;
4047;SDS011;2038;51.728;6.674;2022-12-10T10:21:32;176.30;;;52.53;;
4047;SDS011;2038;51.728;6.674;2022-12-10T10:23:59;191.97;;;57.97;;
4047;SDS011;2038;51.728;6.674;2022-12-10T10:26:27;168.13;;;58.37;;
4047;SDS011;2038;51.728;6.674;2022-12-10T10:29:00;168.33;;;53.10;;
4047;SDS011;2038;51.728;6.674;2022-12-10T10:31:32;165.33;;;54.30;;
4047;SDS011;2038;51.728;6.674;2022-12-10T10:34:04;164.77;;;54.80;;
4047;SDS011;2038;51.728;6.674;2022-12-10T10:36:42;136.80;;;48.70;;
4047;SDS011;2038;51.728;6.674;2022-12-10T10:39:11;150.20;;;50.40;;
4047;SDS011;2038;51.728;6.674;2022-12-10T10:41:44;162.30;;;50.10;;
4047;SDS011;2038;51.728;6.674;2022-12-10T10:44:21;135.27;;;44.17;;
4047;SDS011;2038;51.728;6.674;2022-12-10T10:46:54;201.93;;;79.83;;
4047;SDS011;2038;51.728;6.674;2022-12-10T10:49:31;210.17;;;97.70;;
4047;SDS011;2038;51.728;6.674;2022-12-10T10:51:59;177.97;;;74.57;;
4047;SDS011;2038;51.728;6.674;2022-12-10T11:00:01;125.90;;;47.67;;
4047;SDS011;2038;51.728;6.674;2022-12-10T11:02:43;134.43;;;49.60;;
4047;SDS011;2038;51.728;6.674;2022-12-10T11:05:21;128.47;;;47.17;;
4047;SDS011;2038;51.728;6.674;2022-12-10T11:08:02;130.73;;;50.37;;
4047;SDS011;2038;51.728;6.674;2022-12-10T11:10:37;147.00;;;48.93;;
4047;SDS011;2038;51.728;6.674;2022-12-10T11:13:24;129.23;;;46.17;;
4047;SDS011;2038;51.728;6.674;2022-12-10T11:16:38;124.90;;;43.87;;
4047;SDS011;2038;51.728;6.674;2022-12-10T11:18:55;135.30;;;47.40;;
4047;SDS011;2038;51.728;6.674;2022-12-10T11:21:27;115.93;;;41.20;;
4047;SDS011;2038;51.728;6.674;2022-12-10T11:23:58;115.97;;;43.13;;
4047;SDS011;2038;51.728;6.674;2022-12-10T11:32:40;112.47;;;44.93;;
4047;SDS011;2038;51.728;6.674;2022-12-10T11:35:55;120.70;;;42.97;;
4047;SDS011;2038;51.728;6.674;2022-12-10T11:38:55;116.23;;;42.30;;
4047;SDS011;2038;51.728;6.674;2022-12-10T11:50:47;115.27;;;43.40;;
4047;SDS011;2038;51.728;6.674;2022-12-10T11:56:47;125.23;;;46.87;;
4047;SDS011;2038;51.728;6.674;2022-12-10T12:03:06;139.00;;;49.70;;
4047;SDS011;2038;51.728;6.674;2022-12-10T12:06:31;121.47;;;44.30;;
4047;SDS011;2038;51.728;6.674;2022-12-10T12:09:45;140.30;;;47.20;;
4047;SDS011;2038;51.728;6.674;2022-12-10T12:13:11;138.43;;;46.20;;
4047;SDS011;2038;51.728;6.674;2022-12-10T12:15:47;126.77;;;46.83;;
4047;SDS011;2038;51.728;6.674;2022-12-10T12:18:43;120.47;;;44.77;;
4047;SDS011;2038;51.728;6.674;2022-12-10T12:21:19;121.13;;;48.07;;
4047;SDS011;2038;51.728;6.674;2022-12-10T12:23:56;110.03;;;44.13;;
4047;SDS011;2038;51.728;6.674;2022-12-10T12:26:50;125.83;;;46.17;;
4047;SDS011;2038;51.728;6.674;2022-12-10T12:29:34;121.47;;;47.93;;
4047;SDS011;2038;51.728;6.674;2022-12-10T12:32:25;107.10;;;43.83;;
4047;SDS011;2038;51.728;6.674;2022-12-10T12:35:27;125.73;;;43.27;;
4047;SDS011;2038;51.728;6.674;2022-12-10T12:46:47;107.50;;;42.30;;
4047;SDS011;2038;51.728;6.674;2022-12-10T12:49:30;127.60;;;49.90;;
4047;SDS011;2038;51.728;6.674;2022-12-10T12:55:14;140.67;;;46.73;;
4047;SDS011;2038;51.728;6.674;2022-12-10T12:58:11;122.20;;;47.40;;
4047;SDS011;2038;51.728;6.674;2022-12-10T13:00:54;133.00;;;45.67;;
4047;SDS011;2038;51.728;6.674;2022-12-10T13:03:35;103.83;;;44.33;;
4047;SDS011;2038;51.728;6.674;2022-12-10T13:06:26;110.67;;;45.83;;
4047;SDS011;2038;51.728;6.674;2022-12-10T13:11:41;121.13;;;45.37;;
4047;SDS011;2038;51.728;6.674;2022-12-10T13:14:56;136.57;;;50.67;;
4047;SDS011;2038;51.728;6.674;2022-12-10T13:18:01;125.07;;;46.00;;
4047;SDS011;2038;51.728;6.674;2022-12-10T13:36:27;112.67;;;41.57;;
4047;SDS011;2038;51.728;6.674;2022-12-10T13:39:54;109.37;;;40.17;;
4047;SDS011;2038;51.728;6.674;2022-12-10T13:42:39;105.67;;;39.43;;
4047;SDS011;2038;51.728;6.674;2022-12-10T13:45:32;106.43;;;40.53;;
4047;SDS011;2038;51.728;6.674;2022-12-10T13:56:37;124.40;;;46.30;;
4047;SDS011;2038;51.728;6.674;2022-12-10T14:06:19;124.43;;;44.20;;
4047;SDS011;2038;51.728;6.674;2022-12-10T14:09:00;124.80;;;44.80;;
4047;SDS011;2038;51.728;6.674;2022-12-10T14:14:29;111.53;;;43.50;;
4047;SDS011;2038;51.728;6.674;2022-12-10T14:17:13;111.50;;;41.60;;
4047;SDS011;2038;51.728;6.674;2022-12-10T14:19:46;123.53;;;40.47;;
4047;SDS011;2038;51.728;6.674;2022-12-10T14:22:19;127.03;;;47.00;;
4047;SDS011;2038;51.728;6.674;2022-12-10T14:25:04;113.63;;;46.23;;
4047;SDS011;2038;51.728;6.674;2022-12-10T14:27:39;120.57;;;43.50;;
4047;SDS011;2038;51.728;6.674;2022-12-10T14:30:27;120.57;;;45.37;;
4047;SDS011;2038;51.728;6.674;2022-12-10T14:32:53;145.97;;;47.27;;
4047;SDS011;2038;51.728;6.674;2022-12-10T14:35:25;112.90;;;45.30;;
4047;SDS011;2038;51.728;6.674;2022-12-10T14:37:55;111.83;;;45.73;;
4047;SDS011;2038;51.728;6.674;2022-12-10T14:40:25;126.30;;;45.90;;
4047;SDS011;2038;51.728;6.674;2022-12-10T14:43:06;145.00;;;50.77;;
4047;SDS011;2038;51.728;6.674;2022-12-10T14:45:45;117.07;;;46.73;;
4047;SDS011;2038;51.728;6.674;2022-12-10T14:48:24;138.27;;;57.53;;
4047;SDS011;2038;51.728;6.674;2022-12-10T14:50:50;127.27;;;47.60;;
4047;SDS011;2038;51.728;6.674;2022-12-10T14:53:18;129.20;;;43.27;;
4047;SDS011;2038;51.728;6.674;2022-12-10T14:55:52;137.40;;;46.67;;
4047;SDS011;2038;51.728;6.674;2022-12-10T14:58:28;153.83;;;49.90;;
4047;SDS011;2038;51.728;6.674;2022-12-10T15:01:00;121.03;;;43.03;;
4047;SDS011;2038;51.728;6.674;2022-12-10T15:03:29;103.80;;;40.13;;
4047;SDS011;2038;51.728;6.674;2022-12-10T15:06:08;125.43;;;45.10;;
4047;SDS011;2038;51.728;6.674;2022-12-10T15:08:34;115.83;;;43.00;;
4047;SDS011;2038;51.728;6.674;2022-12-10T15:11:02;122.37;;;42.60;;
4047;SDS011;2038;51.728;6.674;2022-12-10T15:16:04;139.33;;;47.93;;
4047;SDS011;2038;51.728;6.674;2022-12-10T15:18:36;136.33;;;47.70;;
4047;SDS011;2038;51.728;6.674;2022-12-10T15:23:48;152.30;;;47.17;;
4047;SDS011;2038;51.728;6.674;2022-12-10T15:26:19;127.27;;;44.17;;
4047;SDS011;2038;51.728;6.674;2022-12-10T15:28:48;144.77;;;52.17;;
4047;SDS011;2038;51.728;6.674;2022-12-10T15:31:22;118.17;;;42.17;;
4047;SDS011;2038;51.728;6.674;2022-12-10T15:33:57;112.67;;;43.17;;
4047;SDS011;2038;51.728;6.674;2022-12-10T15:36:50;149.07;;;50.17;;
4047;SDS011;2038;51.728;6.674;2022-12-10T15:39:24;131.03;;;45.30;;
4047;SDS011;2038;51.728;6.674;2022-12-10T15:41:56;143.93;;;50.07;;
4047;SDS011;2038;51.728;6.674;2022-12-10T15:44:32;180.87;;;61.00;;
4047;SDS011;2038;51.728;6.674;2022-12-10T15:49:47;128.57;;;50.07;;
4047;SDS011;2038;51.728;6.674;2022-12-10T15:52:25;127.07;;;52.47;;
4047;SDS011;2038;51.728;6.674;2022-12-10T15:54:56;149.67;;;55.10;;
4047;SDS011;2038;51.728;6.674;2022-12-10T15:57:30;111.10;;;44.33;;
4047;SDS011;2038;51.728;6.674;2022-12-10T16:00:04;142.27;;;48.17;;
4047;SDS011;2038;51.728;6.674;2022-12-10T16:02:54;122.10;;;49.80;;
4047;SDS011;2038;51.728;6.674;2022-12-10T16:05:36;132.90;;;44.73;;
4047;SDS011;2038;51.728;6.674;2022-12-10T16:10:47;117.73;;;41.60;;
4047;SDS011;2038;51.728;6.674;2022-12-10T16:13:22;136.53;;;47.57;;
4047;SDS011;2038;51.728;6.674;2022-12-10T16:15:58;135.93;;;44.67;;
4047;SDS011;2038;51.728;6.674;2022-12-10T16:18:31;115.83;;;41.17;;
4047;SDS011;2038;51.728;6.674;2022-12-10T16:21:00;121.60;;;42.67;;
4047;SDS011;2038;51.728;6.674;2022-12-10T16:23:29;111.70;;;42.60;;
4047;SDS011;2038;51.728;6.674;2022-12-10T16:25:55;114.63;;;40.83;;
4047;SDS011;2038;51.728;6.674;2022-12-10T16:28:23;131.03;;;43.37;;
4047;SDS011;2038;51.728;6.674;2022-12-10T16:30:57;121.70;;;42.20;;
4047;SDS011;2038;51.728;6.674;2022-12-10T16:33:24;122.67;;;40.60;;
4047;SDS011;2038;51.728;6.674;2022-12-10T16:35:52;134.73;;;44.97;;
4047;SDS011;2038;51.728;6.674;2022-12-10T16:38:22;129.50;;;42.97;;
4047;SDS011;2038;51.728;6.674;2022-12-10T16:40:49;108.40;;;41.07;;
4047;SDS011;2038;51.728;6.674;2022-12-10T16:43:16;119.03;;;42.20;;
4047;SDS011;2038;51.728;6.674;2022-12-10T16:45:49;106.93;;;40.87;;
4047;SDS011;2038;51.728;6.674;2022-12-10T16:48:18;119.23;;;43.63;;
4047;SDS011;2038;51.728;6.674;2022-12-10T16:50:44;113.73;;;38.97;;
4047;SDS011;2038;51.728;6.674;2022-12-10T16:53:16;105.10;;;41.33;;
4047;SDS011;2038;51.728;6.674;2022-12-10T16:55:51;101.83;;;39.37;;
4047;SDS011;2038;51.728;6.674;2022-12-10T16:58:21;111.97;;;42.00;;
4047;SDS011;2038;51.728;6.674;2022-12-10T17:00:50;98.80;;;39.37;;
4047;SDS011;2038;51.728;6.674;2022-12-10T17:03:20;108.17;;;39.50;;
4047;SDS011;2038;51.728;6.674;2022-12-10T17:05:54;105.30;;;37.60;;
4047;SDS011;2038;51.728;6.674;2022-12-10T17:08:28;117.07;;;41.13;;
4047;SDS011;2038;51.728;6.674;2022-12-10T17:10:55;96.00;;;38.80;;